Terminal Aerodrome Forecast
Issued by NWS Detroit/Pontiac, MI

Home | Current Version | Previous Version | Text Only | Print | Product List | Glossary On
Versions: 1 2 3 4 5 6 7 8 9 10 11 12 13 14 15 16 17 18 19 20 21 22 23 24 25 26 27 28 29 30 31 32
703
FTUS43 KDTX 151533 AAB
TAFDTW
TAF AMD
KDTW 151533Z 1516/1618 21008KT 5SM -SHSN OVC035
      TEMPO 1516/1517 1SM -SN BKN025 OVC035
     FM151700 23012G25KT 4SM -SHSN OVC020
      TEMPO 1518/1521 2SM -SHSN OVC015
     FM152100 27012KT 5SM -SHSN OVC015
     FM152300 26010KT P6SM -SHSN OVC035
     FM160300 24008KT 6SM -SHSN OVC025
     FM161200 30006KT 4SM -SHSN OVC020=

USA.gov is the U.S. government's official web portal to all federal, state and local government web resources and services.